sensor_id;sensor_type;location;lat;lon;timestamp;pressure;altitude;pressure_sealevel;temperature;humidity
52735;BME280;38631;47.572;10.704;2023-02-20T00:00:32;93512.25;;;5.56;82.32
52735;BME280;38631;47.572;10.704;2023-02-20T00:02:58;93509.56;;;5.51;81.60
52735;BME280;38631;47.572;10.704;2023-02-20T00:05:23;93508.44;;;5.47;81.37
52735;BME280;38631;47.572;10.704;2023-02-20T00:07:49;93518.81;;;5.53;81.54
52735;BME280;38631;47.572;10.704;2023-02-20T00:10:14;93520.78;;;5.41;82.20
52735;BME280;38631;47.572;10.704;2023-02-20T00:12:40;93518.88;;;5.36;82.84
52735;BME280;38631;47.572;10.704;2023-02-20T00:15:06;93529.38;;;5.31;83.70
52735;BME280;38631;47.572;10.704;2023-02-20T00:17:32;93528.44;;;5.43;82.96
52735;BME280;38631;47.572;10.704;2023-02-20T00:19:57;93527.41;;;5.44;81.71
52735;BME280;38631;47.572;10.704;2023-02-20T00:22:23;93534.97;;;5.35;82.68
52735;BME280;38631;47.572;10.704;2023-02-20T00:24:49;93537.44;;;5.19;82.22
52735;BME280;38631;47.572;10.704;2023-02-20T00:27:14;93540.47;;;5.33;83.30
52735;BME280;38631;47.572;10.704;2023-02-20T00:29:40;93540.72;;;5.32;82.26
52735;BME280;38631;47.572;10.704;2023-02-20T00:32:06;93545.41;;;5.52;81.48
52735;BME280;38631;47.572;10.704;2023-02-20T00:34:31;93538.56;;;5.29;81.72
52735;BME280;38631;47.572;10.704;2023-02-20T00:36:57;93531.03;;;5.37;81.28
52735;BME280;38631;47.572;10.704;2023-02-20T00:39:22;93518.16;;;5.41;81.45
52735;BME280;38631;47.572;10.704;2023-02-20T00:41:47;93525.63;;;5.49;80.49
52735;BME280;38631;47.572;10.704;2023-02-20T00:44:13;93532.94;;;5.42;81.06
52735;BME280;38631;47.572;10.704;2023-02-20T00:46:39;93525.66;;;5.27;81.94
52735;BME280;38631;47.572;10.704;2023-02-20T00:49:04;93528.84;;;5.29;80.93
52735;BME280;38631;47.572;10.704;2023-02-20T00:51:30;93529.09;;;5.28;80.74
52735;BME280;38631;47.572;10.704;2023-02-20T00:53:56;93554.53;;;5.44;81.00
52735;BME280;38631;47.572;10.704;2023-02-20T00:56:21;93549.81;;;5.46;80.61
52735;BME280;38631;47.572;10.704;2023-02-20T00:58:47;93553.72;;;5.44;80.46
52735;BME280;38631;47.572;10.704;2023-02-20T01:01:12;93551.38;;;5.42;80.90
52735;BME280;38631;47.572;10.704;2023-02-20T01:03:39;93549.53;;;5.43;80.56
52735;BME280;38631;47.572;10.704;2023-02-20T01:06:05;93549.91;;;5.29;80.82
52735;BME280;38631;47.572;10.704;2023-02-20T01:08:30;93541.00;;;5.35;80.34
52735;BME280;38631;47.572;10.704;2023-02-20T01:10:55;93543.69;;;5.40;80.01
52735;BME280;38631;47.572;10.704;2023-02-20T01:13:21;93543.94;;;5.39;80.78
52735;BME280;38631;47.572;10.704;2023-02-20T01:15:46;93537.78;;;5.28;82.35
52735;BME280;38631;47.572;10.704;2023-02-20T01:18:11;93539.72;;;5.38;82.09
52735;BME280;38631;47.572;10.704;2023-02-20T01:20:37;93551.00;;;5.33;81.67
52735;BME280;38631;47.572;10.704;2023-02-20T01:23:02;93545.44;;;5.30;82.18
52735;BME280;38631;47.572;10.704;2023-02-20T01:25:28;93558.59;;;5.08;82.15
52735;BME280;38631;47.572;10.704;2023-02-20T01:27:53;93546.91;;;4.98;82.38
52735;BME280;38631;47.572;10.704;2023-02-20T01:30:19;93549.81;;;4.97;82.62
52735;BME280;38631;47.572;10.704;2023-02-20T01:32:44;93544.53;;;4.97;82.93
52735;BME280;38631;47.572;10.704;2023-02-20T01:35:10;93542.13;;;4.95;83.02
52735;BME280;38631;47.572;10.704;2023-02-20T01:37:36;93538.94;;;4.93;83.10
52735;BME280;38631;47.572;10.704;2023-02-20T01:40:02;93544.53;;;4.97;83.27
52735;BME280;38631;47.572;10.704;2023-02-20T01:42:31;93543.00;;;5.01;82.92
52735;BME280;38631;47.572;10.704;2023-02-20T01:45:36;93554.06;;;5.03;83.39
52735;BME280;38631;47.572;10.704;2023-02-20T01:48:02;93537.88;;;4.89;83.58
52735;BME280;38631;47.572;10.704;2023-02-20T01:50:41;93546.84;;;4.93;83.63
52735;BME280;38631;47.572;10.704;2023-02-20T01:53:14;93542.13;;;4.95;83.51
52735;BME280;38631;47.572;10.704;2023-02-20T01:55:47;93553.91;;;5.10;82.26
52735;BME280;38631;47.572;10.704;2023-02-20T01:58:31;93554.19;;;5.13;82.24
52735;BME280;38631;47.572;10.704;2023-02-20T02:00:59;93550.81;;;5.18;81.93
52735;BME280;38631;47.572;10.704;2023-02-20T02:03:28;93556.47;;;5.27;81.31
52735;BME280;38631;47.572;10.704;2023-02-20T02:05:58;93564.47;;;5.37;81.37
52735;BME280;38631;47.572;10.704;2023-02-20T02:08:26;93560.78;;;5.38;80.77
52735;BME280;38631;47.572;10.704;2023-02-20T02:11:04;93566.13;;;5.21;81.64
52735;BME280;38631;47.572;10.704;2023-02-20T02:13:32;93562.34;;;5.12;82.08
52735;BME280;38631;47.572;10.704;2023-02-20T02:36:08;93540.78;;;5.15;81.71
52735;BME280;38631;47.572;10.704;2023-02-20T02:38:46;93545.44;;;5.30;81.35
52735;BME280;38631;47.572;10.704;2023-02-20T02:47:11;93541.81;;;5.14;81.46
52735;BME280;38631;47.572;10.704;2023-02-20T02:52:18;93549.06;;;5.02;83.05
52735;BME280;38631;47.572;10.704;2023-02-20T02:55:06;93539.44;;;4.90;83.65
52735;BME280;38631;47.572;10.704;2023-02-20T02:57:32;93545.69;;;4.84;83.57
52735;BME280;38631;47.572;10.704;2023-02-20T03:00:08;93536.38;;;4.76;83.97
52735;BME280;38631;47.572;10.704;2023-02-20T03:02:43;93541.81;;;4.70;83.96
52735;BME280;38631;47.572;10.704;2023-02-20T03:05:11;93539.97;;;4.70;84.25
52735;BME280;38631;47.572;10.704;2023-02-20T03:07:41;93519.84;;;4.59;84.21
52735;BME280;38631;47.572;10.704;2023-02-20T03:10:10;93534.16;;;4.68;84.17
52735;BME280;38631;47.572;10.704;2023-02-20T03:12:44;93521.78;;;4.69;83.98
52735;BME280;38631;47.572;10.704;2023-02-20T03:15:24;93524.72;;;4.50;84.86
52735;BME280;38631;47.572;10.704;2023-02-20T03:18:23;93518.00;;;4.60;84.48
52735;BME280;38631;47.572;10.704;2023-02-20T03:20:55;93520.50;;;4.49;85.20
52735;BME280;38631;47.572;10.704;2023-02-20T03:23:28;93502.28;;;4.65;84.31
52735;BME280;38631;47.572;10.704;2023-02-20T03:26:02;93515.03;;;4.73;83.99
52735;BME280;38631;47.572;10.704;2023-02-20T03:28:36;93510.31;;;4.75;84.00
52735;BME280;38631;47.572;10.704;2023-02-20T03:33:55;93494.56;;;4.58;83.94
52735;BME280;38631;47.572;10.704;2023-02-20T03:36:47;93494.31;;;4.38;84.02
52735;BME280;38631;47.572;10.704;2023-02-20T03:39:37;93479.34;;;4.21;85.52
52735;BME280;38631;47.572;10.704;2023-02-20T03:42:23;93488.06;;;4.22;85.69
52735;BME280;38631;47.572;10.704;2023-02-20T03:45:09;93495.88;;;4.39;85.81
52735;BME280;38631;47.572;10.704;2023-02-20T03:47:39;93499.94;;;4.07;85.86
52735;BME280;38631;47.572;10.704;2023-02-20T03:50:08;93493.06;;;4.23;85.29
52735;BME280;38631;47.572;10.704;2023-02-20T03:52:54;93493.38;;;4.27;84.60
52735;BME280;38631;47.572;10.704;2023-02-20T03:55:20;93494.41;;;4.26;84.92
52735;BME280;38631;47.572;10.704;2023-02-20T03:57:49;93483.44;;;3.78;86.85
52735;BME280;38631;47.572;10.704;2023-02-20T04:00:19;93501.13;;;3.83;86.42
52735;BME280;38631;47.572;10.704;2023-02-20T04:02:49;93494.59;;;4.02;85.92
52735;BME280;38631;47.572;10.704;2023-02-20T04:05:20;93499.06;;;3.85;86.14
52735;BME280;38631;47.572;10.704;2023-02-20T04:07:56;93489.84;;;3.99;85.50
52735;BME280;38631;47.572;10.704;2023-02-20T04:10:30;93495.66;;;4.01;84.89
52735;BME280;38631;47.572;10.704;2023-02-20T04:12:59;93502.25;;;4.04;85.38
52735;BME280;38631;47.572;10.704;2023-02-20T04:15:26;93500.97;;;4.06;84.65
52735;BME280;38631;47.572;10.704;2023-02-20T04:18:03;93496.44;;;3.85;85.65
52735;BME280;38631;47.572;10.704;2023-02-20T04:20:29;93480.81;;;3.78;86.40
52735;BME280;38631;47.572;10.704;2023-02-20T04:22:57;93485.00;;;3.74;87.10
52735;BME280;38631;47.572;10.704;2023-02-20T04:25:35;93495.53;;;3.96;86.42
52735;BME280;38631;47.572;10.704;2023-02-20T04:28:03;93487.84;;;4.06;85.37
52735;BME280;38631;47.572;10.704;2023-02-20T04:30:29;93481.66;;;3.79;85.77
52735;BME280;38631;47.572;10.704;2023-02-20T04:32:55;93477.66;;;3.59;86.02
52735;BME280;38631;47.572;10.704;2023-02-20T04:35:20;93483.84;;;3.53;87.06
52735;BME280;38631;47.572;10.704;2023-02-20T04:37:46;93487.03;;;3.55;86.81
52735;BME280;38631;47.572;10.704;2023-02-20T04:40:14;93491.25;;;3.39;86.28
52735;BME280;38631;47.572;10.704;2023-02-20T04:42:39;93498.94;;;3.29;87.91
52735;BME280;38631;47.572;10.704;2023-02-20T04:45:05;93489.00;;;3.48;86.10
52735;BME280;38631;47.572;10.704;2023-02-20T04:47:30;93486.03;;;3.56;86.03
52735;BME280;38631;47.572;10.704;2023-02-20T04:49:55;93497.38;;;3.45;86.23
52735;BME280;38631;47.572;10.704;2023-02-20T04:52:21;93488.44;;;3.46;86.32
52735;BME280;38631;47.572;10.704;2023-02-20T04:54:48;93491.34;;;2.87;88.50
52735;BME280;38631;47.572;10.704;2023-02-20T04:57:14;93492.06;;;3.11;88.05
52735;BME280;38631;47.572;10.704;2023-02-20T04:59:39;93490.28;;;3.00;89.19
52735;BME280;38631;47.572;10.704;2023-02-20T05:02:05;93483.00;;;3.19;88.29
52735;BME280;38631;47.572;10.704;2023-02-20T05:04:30;93483.66;;;3.26;88.15
52735;BME280;38631;47.572;10.704;2023-02-20T05:06:56;93488.63;;;3.39;88.17
52735;BME280;38631;47.572;10.704;2023-02-20T05:09:22;93486.50;;;2.96;89.37
52735;BME280;38631;47.572;10.704;2023-02-20T05:11:47;93483.34;;;2.94;88.75
52735;BME280;38631;47.572;10.704;2023-02-20T05:14:13;93483.06;;;3.07;88.50
52735;BME280;38631;47.572;10.704;2023-02-20T05:16:40;93493.81;;;3.22;87.72
52735;BME280;38631;47.572;10.704;2023-02-20T05:19:06;93490.81;;;3.14;87.65
52735;BME280;38631;47.572;10.704;2023-02-20T05:21:32;93487.94;;;2.34;89.58
52735;BME280;38631;47.572;10.704;2023-02-20T05:24:16;93489.22;;;2.72;88.81
52735;BME280;38631;47.572;10.704;2023-02-20T05:26:42;93487.50;;;2.78;88.16
52735;BME280;38631;47.572;10.704;2023-02-20T05:29:07;93489.19;;;2.32;87.94
52735;BME280;38631;47.572;10.704;2023-02-20T05:31:36;93488.72;;;2.23;90.40
52735;BME280;38631;47.572;10.704;2023-02-20T05:34:02;93495.78;;;2.46;89.19
52735;BME280;38631;47.572;10.704;2023-02-20T05:36:27;93488.25;;;2.38;89.07
52735;BME280;38631;47.572;10.704;2023-02-20T05:38:52;93487.25;;;2.39;89.61
52735;BME280;38631;47.572;10.704;2023-02-20T05:41:18;93490.00;;;2.09;89.85
52735;BME280;38631;47.572;10.704;2023-02-20T05:43:44;93485.91;;;2.25;90.60
52735;BME280;38631;47.572;10.704;2023-02-20T05:46:09;93478.25;;;2.35;88.91
52735;BME280;38631;47.572;10.704;2023-02-20T05:48:35;93486.59;;;2.08;88.87
52735;BME280;38631;47.572;10.704;2023-02-20T05:51:00;93482.16;;;1.97;90.10
52735;BME280;38631;47.572;10.704;2023-02-20T05:53:27;93477.03;;;2.26;89.23
52735;BME280;38631;47.572;10.704;2023-02-20T05:55:53;93467.19;;;2.33;89.64
52735;BME280;38631;47.572;10.704;2023-02-20T05:58:18;93467.34;;;2.26;89.58
52735;BME280;38631;47.572;10.704;2023-02-20T06:00:43;93466.91;;;2.06;89.49
52735;BME280;38631;47.572;10.704;2023-02-20T06:03:09;93457.22;;;2.06;89.62
52735;BME280;38631;47.572;10.704;2023-02-20T06:05:35;93453.66;;;2.24;88.71
52735;BME280;38631;47.572;10.704;2023-02-20T06:08:00;93466.81;;;2.53;88.78
52735;BME280;38631;47.572;10.704;2023-02-20T06:10:26;93456.44;;;2.06;89.27
52735;BME280;38631;47.572;10.704;2023-02-20T06:12:51;93456.41;;;2.17;89.94
52735;BME280;38631;47.572;10.704;2023-02-20T06:15:16;93463.78;;;2.21;89.71
52735;BME280;38631;47.572;10.704;2023-02-20T06:17:42;93471.22;;;2.24;88.76
52735;BME280;38631;47.572;10.704;2023-02-20T06:20:07;93467.59;;;1.89;90.38
52735;BME280;38631;47.572;10.704;2023-02-20T06:22:33;93471.34;;;1.93;91.36
52735;BME280;38631;47.572;10.704;2023-02-20T06:24:58;93474.97;;;2.16;91.12
52735;BME280;38631;47.572;10.704;2023-02-20T06:27:25;93473.84;;;1.77;91.65
52735;BME280;38631;47.572;10.704;2023-02-20T06:29:51;93488.25;;;1.44;93.94
52735;BME280;38631;47.572;10.704;2023-02-20T06:32:16;93490.19;;;1.48;93.79
52735;BME280;38631;47.572;10.704;2023-02-20T06:34:44;93494.56;;;1.24;95.26
52735;BME280;38631;47.572;10.704;2023-02-20T06:37:10;93494.66;;;1.71;94.44
52735;BME280;38631;47.572;10.704;2023-02-20T06:39:35;93502.03;;;1.63;94.49
52735;BME280;38631;47.572;10.704;2023-02-20T06:42:01;93496.50;;;1.94;93.10
52735;BME280;38631;47.572;10.704;2023-02-20T06:44:27;93495.03;;;1.87;92.17
52735;BME280;38631;47.572;10.704;2023-02-20T06:46:53;93496.50;;;2.06;92.03
52735;BME280;38631;47.572;10.704;2023-02-20T06:49:18;93492.97;;;2.12;91.12
52735;BME280;38631;47.572;10.704;2023-02-20T06:51:43;93491.34;;;2.23;91.02
52735;BME280;38631;47.572;10.704;2023-02-20T06:54:11;93493.75;;;2.25;90.72
52735;BME280;38631;47.572;10.704;2023-02-20T06:56:36;93499.56;;;2.38;89.58
52735;BME280;38631;47.572;10.704;2023-02-20T06:59:04;93490.97;;;2.43;90.44
52735;BME280;38631;47.572;10.704;2023-02-20T07:01:35;93500.56;;;2.37;89.61
52735;BME280;38631;47.572;10.704;2023-02-20T07:04:03;93498.75;;;2.38;90.16
52735;BME280;38631;47.572;10.704;2023-02-20T07:06:29;93495.69;;;2.29;90.90
52735;BME280;38631;47.572;10.704;2023-02-20T07:08:54;93497.28;;;2.30;90.38
52735;BME280;38631;47.572;10.704;2023-02-20T07:11:21;93499.69;;;2.32;90.97
52735;BME280;38631;47.572;10.704;2023-02-20T07:13:47;93512.78;;;2.20;91.02
52735;BME280;38631;47.572;10.704;2023-02-20T07:16:13;93511.19;;;2.31;90.43
52735;BME280;38631;47.572;10.704;2023-02-20T07:18:39;93515.50;;;2.37;90.63
52735;BME280;38631;47.572;10.704;2023-02-20T07:21:04;93529.50;;;2.54;89.32
52735;BME280;38631;47.572;10.704;2023-02-20T07:23:30;93525.06;;;2.55;90.31
52735;BME280;38631;47.572;10.704;2023-02-20T07:25:55;93528.34;;;2.74;89.29
52735;BME280;38631;47.572;10.704;2023-02-20T07:28:21;93527.72;;;2.31;91.37
52735;BME280;38631;47.572;10.704;2023-02-20T07:30:46;93531.47;;;2.24;93.16
52735;BME280;38631;47.572;10.704;2023-02-20T07:33:17;93532.91;;;2.43;92.44
52735;BME280;38631;47.572;10.704;2023-02-20T07:35:43;93533.03;;;2.60;92.53
52735;BME280;38631;47.572;10.704;2023-02-20T07:38:09;93542.34;;;2.68;91.28
52735;BME280;38631;47.572;10.704;2023-02-20T07:40:34;93541.09;;;2.82;91.07
52735;BME280;38631;47.572;10.704;2023-02-20T07:43:00;93532.25;;;3.00;89.91
52735;BME280;38631;47.572;10.704;2023-02-20T07:45:25;93525.50;;;3.04;89.40
52735;BME280;38631;47.572;10.704;2023-02-20T07:47:50;93536.31;;;3.08;89.66
52735;BME280;38631;47.572;10.704;2023-02-20T07:50:16;93542.34;;;3.20;89.40
52735;BME280;38631;47.572;10.704;2023-02-20T07:52:43;93536.00;;;3.33;88.68
52735;BME280;38631;47.572;10.704;2023-02-20T07:55:09;93527.28;;;3.44;88.27
52735;BME280;38631;47.572;10.704;2023-02-20T07:57:35;93524.19;;;3.47;86.83
52735;BME280;38631;47.572;10.704;2023-02-20T08:00:02;93521.91;;;3.67;87.10
52735;BME280;38631;47.572;10.704;2023-02-20T08:02:28;93525.50;;;3.95;85.65
52735;BME280;38631;47.572;10.704;2023-02-20T08:04:56;93525.56;;;4.00;84.34
52735;BME280;38631;47.572;10.704;2023-02-20T08:07:22;93523.19;;;3.99;84.78
52735;BME280;38631;47.572;10.704;2023-02-20T08:09:47;93532.25;;;4.08;84.75
52735;BME280;38631;47.572;10.704;2023-02-20T08:12:12;93529.81;;;4.01;83.98
52735;BME280;38631;47.572;10.704;2023-02-20T08:14:39;93534.88;;;4.08;84.81
52735;BME280;38631;47.572;10.704;2023-02-20T08:17:06;93527.66;;;4.15;84.24
52735;BME280;38631;47.572;10.704;2023-02-20T08:19:31;93517.97;;;4.38;84.16
52735;BME280;38631;47.572;10.704;2023-02-20T08:21:56;93524.94;;;4.49;84.44
52735;BME280;38631;47.572;10.704;2023-02-20T08:24:22;93515.00;;;4.51;83.57
52735;BME280;38631;47.572;10.704;2023-02-20T08:26:49;93518.56;;;4.62;83.22
52735;BME280;38631;47.572;10.704;2023-02-20T08:29:15;93522.91;;;4.73;82.43
52735;BME280;38631;47.572;10.704;2023-02-20T08:31:41;93521.47;;;4.82;81.71
52735;BME280;38631;47.572;10.704;2023-02-20T08:34:19;93512.28;;;4.85;80.70
52735;BME280;38631;47.572;10.704;2023-02-20T08:36:44;93517.09;;;4.93;80.31
52735;BME280;38631;47.572;10.704;2023-02-20T08:39:09;93514.53;;;4.76;79.50
52735;BME280;38631;47.572;10.704;2023-02-20T08:41:41;93515.03;;;4.95;79.35
52735;BME280;38631;47.572;10.704;2023-02-20T08:44:07;93514.41;;;4.88;78.98
52735;BME280;38631;47.572;10.704;2023-02-20T08:46:35;93519.38;;;4.84;78.25
52735;BME280;38631;47.572;10.704;2023-02-20T08:49:00;93509.66;;;5.07;79.67
52735;BME280;38631;47.572;10.704;2023-02-20T08:51:26;93508.09;;;5.11;80.11
52735;BME280;38631;47.572;10.704;2023-02-20T08:54:07;93511.41;;;5.01;79.97
52735;BME280;38631;47.572;10.704;2023-02-20T08:56:32;93494.03;;;5.00;80.60
52735;BME280;38631;47.572;10.704;2023-02-20T08:58:57;93478.84;;;5.07;80.71
52735;BME280;38631;47.572;10.704;2023-02-20T09:01:29;93463.47;;;5.53;80.65
52735;BME280;38631;47.572;10.704;2023-02-20T09:04:01;93450.03;;;5.82;78.55
52735;BME280;38631;47.572;10.704;2023-02-20T09:06:27;93449.72;;;5.78;77.75
52735;BME280;38631;47.572;10.704;2023-02-20T09:08:53;93435.41;;;5.69;78.03
52735;BME280;38631;47.572;10.704;2023-02-20T09:11:19;93438.97;;;5.85;78.22
52735;BME280;38631;47.572;10.704;2023-02-20T09:13:45;93445.72;;;5.71;77.67
52735;BME280;38631;47.572;10.704;2023-02-20T09:16:12;93438.75;;;5.54;77.77
52735;BME280;38631;47.572;10.704;2023-02-20T09:18:38;93448.50;;;5.59;76.16
52735;BME280;38631;47.572;10.704;2023-02-20T09:21:10;93457.00;;;5.66;75.76
52735;BME280;38631;47.572;10.704;2023-02-20T09:23:36;93453.09;;;5.74;76.10
52735;BME280;38631;47.572;10.704;2023-02-20T09:26:02;93450.06;;;5.87;75.49
52735;BME280;38631;47.572;10.704;2023-02-20T09:28:27;93453.34;;;5.99;75.98
52735;BME280;38631;47.572;10.704;2023-02-20T09:30:53;93444.44;;;6.11;76.56
52735;BME280;38631;47.572;10.704;2023-02-20T09:33:20;93445.94;;;6.44;76.97
52735;BME280;38631;47.572;10.704;2023-02-20T09:35:45;93454.06;;;6.32;75.99
52735;BME280;38631;47.572;10.704;2023-02-20T09:38:13;93442.50;;;6.38;76.56
52735;BME280;38631;47.572;10.704;2023-02-20T09:40:39;93441.91;;;6.89;75.15
52735;BME280;38631;47.572;10.704;2023-02-20T09:45:53;93445.25;;;6.69;73.97
52735;BME280;38631;47.572;10.704;2023-02-20T09:51:20;93439.94;;;6.59;74.46
52735;BME280;38631;47.572;10.704;2023-02-20T09:56:30;93427.69;;;6.95;73.50
52735;BME280;38631;47.572;10.704;2023-02-20T10:02:01;93414.22;;;7.07;73.40
52735;BME280;38631;47.572;10.704;2023-02-20T10:04:58;93421.16;;;7.28;73.03
52735;BME280;38631;47.572;10.704;2023-02-20T10:07:31;93421.13;;;7.13;71.86
52735;BME280;38631;47.572;10.704;2023-02-20T10:10:17;93406.38;;;7.32;72.67
52735;BME280;38631;47.572;10.704;2023-02-20T10:21:51;93396.59;;;7.38;71.34
52735;BME280;38631;47.572;10.704;2023-02-20T10:27:09;93402.63;;;7.18;72.03
52735;BME280;38631;47.572;10.704;2023-02-20T10:29:39;93406.31;;;7.22;71.88
52735;BME280;38631;47.572;10.704;2023-02-20T10:35:22;93406.09;;;7.60;70.62
52735;BME280;38631;47.572;10.704;2023-02-20T10:37:53;93404.50;;;7.79;69.77
52735;BME280;38631;47.572;10.704;2023-02-20T10:41:22;93402.94;;;7.83;69.82
52735;BME280;38631;47.572;10.704;2023-02-20T10:43:35;93391.84;;;7.61;70.12
52735;BME280;38631;47.572;10.704;2023-02-20T10:46:28;93389.41;;;8.15;67.82
52735;BME280;38631;47.572;10.704;2023-02-20T10:48:58;93383.25;;;8.46;67.78
52735;BME280;38631;47.572;10.704;2023-02-20T10:51:31;93384.19;;;8.70;67.37
52735;BME280;38631;47.572;10.704;2023-02-20T10:54:04;93367.09;;;8.47;70.63
52735;BME280;38631;47.572;10.704;2023-02-20T10:56:41;93369.22;;;9.39;64.43
52735;BME280;38631;47.572;10.704;2023-02-20T10:59:15;93362.44;;;9.28;66.76
52735;BME280;38631;47.572;10.704;2023-02-20T11:01:44;93355.38;;;9.47;65.11
52735;BME280;38631;47.572;10.704;2023-02-20T11:04:17;93354.19;;;9.29;68.13
52735;BME280;38631;47.572;10.704;2023-02-20T11:06:49;93355.53;;;9.27;66.45
52735;BME280;38631;47.572;10.704;2023-02-20T11:09:17;93347.78;;;8.96;67.91
52735;BME280;38631;47.572;10.704;2023-02-20T11:11:44;93337.63;;;9.77;65.26
52735;BME280;38631;47.572;10.704;2023-02-20T11:14:14;93331.00;;;9.11;66.53
52735;BME280;38631;47.572;10.704;2023-02-20T11:16:56;93320.41;;;9.45;65.77
52735;BME280;38631;47.572;10.704;2023-02-20T11:19:33;93324.41;;;9.43;64.65
52735;BME280;38631;47.572;10.704;2023-02-20T11:22:03;93315.13;;;9.40;64.41
52735;BME280;38631;47.572;10.704;2023-02-20T11:24:32;93301.09;;;9.40;65.95
52735;BME280;38631;47.572;10.704;2023-02-20T11:27:05;93304.88;;;9.34;65.65
52735;BME280;38631;47.572;10.704;2023-02-20T11:29:34;93309.59;;;9.95;65.45
52735;BME280;38631;47.572;10.704;2023-02-20T11:32:34;93300.38;;;9.87;65.02
52735;BME280;38631;47.572;10.704;2023-02-20T11:35:21;93298.72;;;9.67;63.66
52735;BME280;38631;47.572;10.704;2023-02-20T11:38:18;93292.66;;;9.67;64.61
52735;BME280;38631;47.572;10.704;2023-02-20T11:41:00;93285.44;;;10.21;63.37
52735;BME280;38631;47.572;10.704;2023-02-20T11:43:38;93275.28;;;10.28;63.00
52735;BME280;38631;47.572;10.704;2023-02-20T11:46:18;93275.81;;;10.30;64.00
52735;BME280;38631;47.572;10.704;2023-02-20T11:49:03;93275.41;;;10.60;62.60
52735;BME280;38631;47.572;10.704;2023-02-20T11:51:42;93275.44;;;10.12;63.76
52735;BME280;38631;47.572;10.704;2023-02-20T11:54:22;93269.44;;;10.31;59.15
52735;BME280;38631;47.572;10.704;2023-02-20T11:56:58;93264.94;;;10.69;62.29
52735;BME280;38631;47.572;10.704;2023-02-20T11:59:38;93268.47;;;10.84;62.72
52735;BME280;38631;47.572;10.704;2023-02-20T12:02:26;93268.44;;;10.65;61.62
52735;BME280;38631;47.572;10.704;2023-02-20T12:05:12;93265.78;;;11.21;61.48
52735;BME280;38631;47.572;10.704;2023-02-20T12:07:41;93262.94;;;11.32;61.46
52735;BME280;38631;47.572;10.704;2023-02-20T12:10:38;93261.41;;;11.12;60.98
52735;BME280;38631;47.572;10.704;2023-02-20T12:13:12;93259.66;;;11.54;60.23
52735;BME280;38631;47.572;10.704;2023-02-20T12:15:45;93258.03;;;11.39;59.84
52735;BME280;38631;47.572;10.704;2023-02-20T12:18:24;93254.28;;;11.07;60.59
52735;BME280;38631;47.572;10.704;2023-02-20T12:29:21;93241.38;;;11.94;57.10
52735;BME280;38631;47.572;10.704;2023-02-20T12:32:19;93243.38;;;11.55;59.36
52735;BME280;38631;47.572;10.704;2023-02-20T12:38:06;93229.56;;;12.00;56.08
52735;BME280;38631;47.572;10.704;2023-02-20T12:46:35;93226.22;;;12.08;56.00
52735;BME280;38631;47.572;10.704;2023-02-20T12:51:46;93212.25;;;11.42;57.21
52735;BME280;38631;47.572;10.704;2023-02-20T13:00:33;93203.94;;;11.90;54.07
52735;BME280;38631;47.572;10.704;2023-02-20T13:03:17;93204.59;;;11.68;53.86
52735;BME280;38631;47.572;10.704;2023-02-20T13:05:46;93182.22;;;11.41;54.24
52735;BME280;38631;47.572;10.704;2023-02-20T13:08:38;93194.47;;;11.98;53.76
52735;BME280;38631;47.572;10.704;2023-02-20T13:11:20;93187.16;;;11.76;55.03
52735;BME280;38631;47.572;10.704;2023-02-20T13:18:58;93191.47;;;11.85;51.22
52735;BME280;38631;47.572;10.704;2023-02-20T13:21:29;93185.03;;;11.92;51.57
52735;BME280;38631;47.572;10.704;2023-02-20T13:26:47;93188.31;;;11.83;53.64
52735;BME280;38631;47.572;10.704;2023-02-20T13:29:19;93200.19;;;12.05;54.59
52735;BME280;38631;47.572;10.704;2023-02-20T13:31:52;93197.25;;;12.06;54.82
52735;BME280;38631;47.572;10.704;2023-02-20T13:34:27;93200.78;;;11.88;54.72
52735;BME280;38631;47.572;10.704;2023-02-20T13:36:53;93188.53;;;11.73;54.62
52735;BME280;38631;47.572;10.704;2023-02-20T13:54:56;93174.56;;;12.09;52.19
52735;BME280;38631;47.572;10.704;2023-02-20T13:57:23;93176.34;;;12.00;52.64
52735;BME280;38631;47.572;10.704;2023-02-20T13:59:49;93168.13;;;11.96;52.24
52735;BME280;38631;47.572;10.704;2023-02-20T14:02:22;93172.56;;;12.01;51.98
52735;BME280;38631;47.572;10.704;2023-02-20T14:05:02;93168.44;;;12.08;52.51
52735;BME280;38631;47.572;10.704;2023-02-20T14:07:36;93168.03;;;12.15;52.55
52735;BME280;38631;47.572;10.704;2023-02-20T14:10:06;93158.38;;;12.05;51.79
52735;BME280;38631;47.572;10.704;2023-02-20T14:12:38;93151.88;;;12.12;51.56
52735;BME280;38631;47.572;10.704;2023-02-20T14:15:04;93151.66;;;12.08;52.40
52735;BME280;38631;47.572;10.704;2023-02-20T14:17:30;93146.97;;;11.91;52.59
52735;BME280;38631;47.572;10.704;2023-02-20T14:19:58;93130.25;;;12.13;51.30
52735;BME280;38631;47.572;10.704;2023-02-20T14:22:32;93150.31;;;11.97;51.58
52735;BME280;38631;47.572;10.704;2023-02-20T14:27:37;93127.31;;;12.01;51.15
52735;BME280;38631;47.572;10.704;2023-02-20T14:30:04;93139.28;;;12.40;49.94
52735;BME280;38631;47.572;10.704;2023-02-20T14:32:30;93132.97;;;12.36;48.98
52735;BME280;38631;47.572;10.704;2023-02-20T14:38:12;93124.72;;;12.60;49.76
52735;BME280;38631;47.572;10.704;2023-02-20T14:40:42;93121.66;;;12.30;50.87
52735;BME280;38631;47.572;10.704;2023-02-20T14:43:19;93121.13;;;12.42;50.43
52735;BME280;38631;47.572;10.704;2023-02-20T14:45:56;93115.28;;;12.17;50.69
52735;BME280;38631;47.572;10.704;2023-02-20T14:48:29;93117.19;;;12.03;51.27
52735;BME280;38631;47.572;10.704;2023-02-20T14:53:35;93116.22;;;12.21;50.75
52735;BME280;38631;47.572;10.704;2023-02-20T14:56:27;93107.56;;;12.16;50.60
52735;BME280;38631;47.572;10.704;2023-02-20T14:58:53;93109.22;;;12.25;49.97
52735;BME280;38631;47.572;10.704;2023-02-20T15:06:22;93107.13;;;12.00;51.87
52735;BME280;38631;47.572;10.704;2023-02-20T15:08:55;93103.00;;;11.94;51.65
52735;BME280;38631;47.572;10.704;2023-02-20T15:11:21;93107.91;;;12.14;51.77
52735;BME280;38631;47.572;10.704;2023-02-20T15:13:46;93108.84;;;12.18;51.11